Time;durP1;ratioP1;P1;durP2;ratioP2;P2;SDS_P1;SDS_P2;PMS_P1;PMS_P2;Temp;Humidity;BMP_temperature;BMP_pressure;BME280_temperature;BME280_humidity;BME280_pressure;Samples;Min_cycle;Max_cycle;Signal;HPM_P1;HPM_P2
2022/03/28 00:00:54;;;;;;;15.27;11.00;;;10.70;66.80;;;;;;5077424;28;20284;-68
2022/03/28 00:03:22;;;;;;;15.82;9.75;;;10.70;67.20;;;;;;5076968;28;20207;-68
2022/03/28 00:05:49;;;;;;;11.60;9.20;;;10.60;67.20;;;;;;5076988;28;20226;-68
2022/03/28 00:08:16;;;;;;;13.80;10.25;;;10.50;66.50;;;;;;5076865;28;20225;-68
2022/03/28 00:10:42;;;;;;;12.38;9.65;;;10.50;66.50;;;;;;5077868;28;20216;-68
2022/03/28 00:13:09;;;;;;;12.93;9.70;;;10.40;66.50;;;;;;5076553;28;20207;-68
2022/03/28 00:15:36;;;;;;;15.75;10.73;;;10.40;66.60;;;;;;5076945;28;20195;-68
2022/03/28 00:18:03;;;;;;;15.45;11.00;;;10.40;67.00;;;;;;5076655;28;20222;-68
2022/03/28 00:20:32;;;;;;;14.65;10.65;;;10.40;67.80;;;;;;5076781;28;20230;-68
2022/03/28 00:22:58;;;;;;;15.57;10.70;;;10.40;68.20;;;;;;5076500;28;20627;-68
2022/03/28 00:25:25;;;;;;;14.65;11.20;;;10.30;68.10;;;;;;5076648;28;20313;-68
2022/03/28 00:27:52;;;;;;;15.05;10.70;;;10.30;67.30;;;;;;5076347;28;20231;-68
2022/03/28 00:30:19;;;;;;;13.52;10.23;;;10.20;66.70;;;;;;5076645;28;20561;-68
2022/03/28 00:32:46;;;;;;;13.57;10.38;;;10.20;66.70;;;;;;5076548;28;20285;-68
2022/03/28 00:35:13;;;;;;;15.85;11.02;;;10.20;67.20;;;;;;5076101;28;20205;-68
2022/03/28 00:37:41;;;;;;;14.82;10.15;;;10.10;66.90;;;;;;5076376;28;20202;-68
2022/03/28 00:40:10;;;;;;;17.63;10.60;;;10.10;67.20;;;;;;5076481;28;20638;-68
2022/03/28 00:42:37;;;;;;;12.70;9.75;;;10.10;67.30;;;;;;5076242;28;20207;-68
2022/03/28 00:45:05;;;;;;;14.68;10.65;;;10.00;67.20;;;;;;5076091;28;20234;-68
2022/03/28 00:47:32;;;;;;;16.58;10.55;;;10.00;67.90;;;;;;5076203;28;20203;-69
2022/03/28 00:49:59;;;;;;;14.90;10.25;;;10.00;68.90;;;;;;5077019;28;20338;-69
2022/03/28 00:52:26;;;;;;;17.38;11.18;;;10.10;69.20;;;;;;5076362;28;20203;-69
2022/03/28 00:54:55;;;;;;;16.23;10.90;;;10.00;68.10;;;;;;5075181;28;20656;-68
2022/03/28 00:57:22;;;;;;;14.75;10.82;;;10.00;67.90;;;;;;5076113;28;20199;-69
2022/03/28 00:59:49;;;;;;;15.23;9.95;;;10.10;68.00;;;;;;5076036;28;20227;-68
2022/03/28 01:02:16;;;;;;;16.50;11.00;;;10.10;67.30;;;;;;5075925;28;20198;-68
2022/03/28 01:04:43;;;;;;;14.80;10.10;;;10.10;66.40;;;;;;5075764;28;20253;-68
2022/03/28 01:07:12;;;;;;;15.85;9.98;;;10.10;66.90;;;;;;5075876;28;20553;-68
2022/03/28 01:09:38;;;;;;;12.82;9.80;;;10.20;66.90;;;;;;5076003;28;20231;-68
2022/03/28 01:12:08;;;;;;;14.48;10.02;;;10.10;67.10;;;;;;5075897;28;20198;-68
2022/03/28 01:14:36;;;;;;;17.05;10.05;;;10.00;68.50;;;;;;5075699;28;20198;-68
2022/03/28 01:19:51;;;;;;;15.32;10.52;;;10.00;67.80;;;;;;5075872;28;20699;-68
2022/03/28 01:22:20;;;;;;;17.58;10.85;;;10.00;67.40;;;;;;5075661;28;20293;-68
2022/03/28 01:24:48;;;;;;;15.85;11.05;;;10.00;67.70;;;;;;5075520;28;20229;-68
2022/03/28 01:27:15;;;;;;;15.07;10.02;;;10.00;68.10;;;;;;5075320;28;20233;-68
2022/03/28 01:29:44;;;;;;;16.08;10.68;;;9.90;70.70;;;;;;5075523;28;20227;-68
2022/03/28 01:32:11;;;;;;;14.07;11.13;;;9.90;72.70;;;;;;5075573;28;20205;-68
2022/03/28 01:34:38;;;;;;;16.00;10.45;;;9.80;73.10;;;;;;5075118;28;20744;-68
2022/03/28 01:37:05;;;;;;;15.63;10.88;;;9.70;73.00;;;;;;5075493;28;20619;-68
2022/03/28 01:39:34;;;;;;;18.10;11.85;;;9.70;73.20;;;;;;5075385;28;20226;-70
2022/03/28 01:42:00;;;;;;;19.60;11.35;;;9.70;73.00;;;;;;5075188;28;20199;-68
2022/03/28 01:44:27;;;;;;;14.95;10.80;;;9.60;74.20;;;;;;5074971;28;20294;-68
2022/03/28 01:46:54;;;;;;;13.90;10.50;;;9.50;73.80;;;;;;5074982;28;20293;-68
2022/03/28 01:49:22;;;;;;;16.77;10.60;;;9.40;73.30;;;;;;5075143;28;20587;-68
2022/03/28 01:51:50;;;;;;;16.65;11.73;;;9.50;73.90;;;;;;5074849;28;20253;-68
2022/03/28 01:54:18;;;;;;;14.55;10.70;;;9.60;73.40;;;;;;5075302;28;20203;-68
2022/03/28 01:56:46;;;;;;;16.58;11.73;;;9.60;73.10;;;;;;5074912;28;20672;-70
2022/03/28 01:59:14;;;;;;;17.52;10.75;;;9.50;72.60;;;;;;5074646;28;20222;-68
2022/03/28 02:01:40;;;;;;;17.73;10.80;;;9.40;72.50;;;;;;5074670;28;20297;-68
2022/03/28 02:04:07;;;;;;;15.10;10.70;;;9.40;72.80;;;;;;5074715;28;20209;-68
2022/03/28 02:06:34;;;;;;;14.55;10.90;;;9.40;72.80;;;;;;5073474;28;20696;-68
2022/03/28 02:09:02;;;;;;;14.30;10.80;;;9.50;72.70;;;;;;5074572;28;20700;-68
2022/03/28 02:11:29;;;;;;;19.42;11.85;;;9.50;72.70;;;;;;5074317;28;20238;-68
2022/03/28 02:13:58;;;;;;;15.20;10.63;;;9.40;72.80;;;;;;5074434;28;20228;-68
2022/03/28 02:16:24;;;;;;;22.17;13.10;;;9.20;72.70;;;;;;5074590;28;20199;-68
2022/03/28 02:18:51;;;;;;;17.20;10.90;;;9.20;73.50;;;;;;5074471;28;20219;-68
2022/03/28 02:21:18;;;;;;;15.85;11.02;;;9.20;73.20;;;;;;5074518;28;20206;-68
2022/03/28 02:23:45;;;;;;;19.05;11.68;;;9.20;73.20;;;;;;5074196;28;20213;-68
2022/03/28 02:26:14;;;;;;;21.15;12.32;;;9.10;73.00;;;;;;5074014;28;20318;-68
2022/03/28 02:28:41;;;;;;;16.58;11.00;;;9.10;72.90;;;;;;5074004;28;20238;-68
2022/03/28 02:31:11;;;;;;;16.85;11.00;;;9.00;73.40;;;;;;5074142;28;20213;-68
2022/03/28 02:33:37;;;;;;;16.33;11.20;;;9.00;74.70;;;;;;5073966;28;20205;-68
2022/03/28 02:36:05;;;;;;;17.50;10.95;;;9.10;74.30;;;;;;5074195;28;20277;-68
2022/03/28 02:38:32;;;;;;;18.17;11.52;;;9.10;74.20;;;;;;5074148;28;20588;-68
2022/03/28 02:41:00;;;;;;;19.45;10.48;;;9.10;74.20;;;;;;5074326;28;20240;-68
2022/03/28 02:43:27;;;;;;;14.00;10.20;;;9.10;73.80;;;;;;5074016;28;20225;-68
2022/03/28 02:45:54;;;;;;;16.90;10.85;;;9.10;74.70;;;;;;5073851;28;20258;-68
2022/03/28 02:48:22;;;;;;;15.50;11.10;;;9.10;74.40;;;;;;5073866;28;20225;-68
2022/03/28 02:50:49;;;;;;;17.13;10.60;;;9.10;74.50;;;;;;5073878;28;20209;-68
2022/03/28 02:53:17;;;;;;;17.95;11.85;;;9.10;74.60;;;;;;5073498;28;20301;-67
2022/03/28 02:55:43;;;;;;;18.58;10.48;;;9.00;74.40;;;;;;5073685;28;20195;-68
2022/03/28 02:58:21;;;;;;;14.13;10.38;;;9.00;74.20;;;;;;5073655;28;20226;-68
2022/03/28 03:00:48;;;;;;;15.80;10.88;;;8.90;73.80;;;;;;5074134;28;20209;-68
2022/03/28 03:03:14;;;;;;;16.85;10.88;;;8.90;73.60;;;;;;5073648;28;20252;-68
2022/03/28 03:05:43;;;;;;;16.17;10.52;;;8.90;73.70;;;;;;5073622;28;20229;-68
2022/03/28 03:08:10;;;;;;;21.15;11.65;;;8.90;74.90;;;;;;5073620;28;20300;-68
2022/03/28 03:10:37;;;;;;;21.70;11.90;;;8.80;75.50;;;;;;5073779;28;20213;-68
2022/03/28 03:13:04;;;;;;;18.75;11.50;;;8.80;76.60;;;;;;5073356;28;20272;-67
2022/03/28 03:15:31;;;;;;;15.23;10.70;;;8.80;77.60;;;;;;5073362;28;20603;-68
2022/03/28 03:17:58;;;;;;;16.27;11.32;;;8.70;77.90;;;;;;5073292;28;20314;-68
2022/03/28 03:20:25;;;;;;;17.33;11.35;;;8.60;78.60;;;;;;5073601;28;20241;-68
2022/03/28 03:22:53;;;;;;;19.55;12.23;;;8.50;79.40;;;;;;5073788;28;20289;-68
2022/03/28 03:25:20;;;;;;;15.52;10.80;;;8.50;80.10;;;;;;5073186;28;20309;-68
2022/03/28 03:27:51;;;;;;;16.45;11.60;;;8.50;80.50;;;;;;5073245;28;20216;-68
2022/03/28 03:30:19;;;;;;;19.60;11.45;;;8.50;80.40;;;;;;5073524;28;20197;-68
2022/03/28 03:32:46;;;;;;;14.48;11.38;;;8.50;80.80;;;;;;5073494;28;20564;-68
2022/03/28 03:35:13;;;;;;;14.60;10.05;;;8.50;81.40;;;;;;5073360;28;20199;-68
2022/03/28 03:37:41;;;;;;;19.52;12.00;;;8.50;82.10;;;;;;5073177;28;20297;-68
2022/03/28 03:40:12;;;;;;;17.90;12.15;;;8.40;82.20;;;;;;5073504;28;20297;-68
2022/03/28 03:42:39;;;;;;;18.67;11.75;;;8.40;82.70;;;;;;5073450;28;20560;-68
2022/03/28 03:45:07;;;;;;;18.65;11.48;;;8.40;82.60;;;;;;5073215;28;20203;-68
2022/03/28 03:47:34;;;;;;;17.23;11.00;;;8.40;83.20;;;;;;5073295;28;20199;-68
2022/03/28 03:50:01;;;;;;;14.20;10.75;;;8.40;82.50;;;;;;5073407;28;20202;-68
2022/03/28 03:52:28;;;;;;;18.70;11.40;;;8.30;82.10;;;;;;5073284;28;20545;-68
2022/03/28 03:54:54;;;;;;;16.73;12.10;;;8.40;82.10;;;;;;5072852;28;20202;-68
2022/03/28 03:57:23;;;;;;;14.95;11.27;;;8.40;81.50;;;;;;5072971;28;20564;-68
2022/03/28 03:59:49;;;;;;;18.92;11.77;;;8.40;81.30;;;;;;5073060;28;20237;-68
2022/03/28 04:02:16;;;;;;;20.48;11.20;;;8.40;80.60;;;;;;5073193;28;20199;-68
2022/03/28 04:04:43;;;;;;;17.30;11.13;;;8.40;80.60;;;;;;5073044;28;20198;-68
2022/03/28 04:07:10;;;;;;;20.42;13.95;;;8.40;80.40;;;;;;5072914;28;20269;-68
2022/03/28 04:09:37;;;;;;;14.95;11.52;;;8.40;80.80;;;;;;5073192;28;20227;-68
2022/03/28 04:12:05;;;;;;;17.33;12.65;;;8.40;81.30;;;;;;5072816;28;20202;-68
2022/03/28 04:14:33;;;;;;;17.77;12.82;;;8.40;81.80;;;;;;5072945;28;20209;-68
2022/03/28 04:17:00;;;;;;;18.88;11.95;;;8.40;82.50;;;;;;5073139;28;20560;-68
2022/03/28 04:19:27;;;;;;;18.27;11.95;;;8.40;82.90;;;;;;5073131;28;20222;-68
2022/03/28 04:21:54;;;;;;;18.55;12.25;;;8.30;83.30;;;;;;5073319;28;20209;-68
2022/03/28 04:24:21;;;;;;;18.95;12.38;;;8.20;83.60;;;;;;5072600;28;20245;-68
2022/03/28 04:26:48;;;;;;;17.20;11.45;;;8.00;84.50;;;;;;5072670;28;20692;-68
2022/03/28 04:29:15;;;;;;;21.15;12.65;;;8.00;85.10;;;;;;5073226;28;20237;-67
2022/03/28 04:31:43;;;;;;;18.83;12.77;;;7.90;84.90;;;;;;5076342;28;20252;-68
2022/03/28 04:34:10;;;;;;;21.23;12.50;;;8.00;85.10;;;;;;5076698;28;20213;-68
2022/03/28 04:36:38;;;;;;;18.48;11.75;;;8.00;85.10;;;;;;5076496;28;20205;-68
2022/03/28 04:39:05;;;;;;;18.25;12.30;;;8.00;84.60;;;;;;5076126;28;20222;-68
2022/03/28 04:41:32;;;;;;;20.23;11.38;;;7.90;84.40;;;;;;5076998;28;20211;-67
2022/03/28 04:43:59;;;;;;;15.80;11.13;;;7.90;85.00;;;;;;5076040;28;20235;-70
2022/03/28 04:46:26;;;;;;;19.05;12.70;;;7.90;85.20;;;;;;5076262;28;20233;-70
2022/03/28 04:48:54;;;;;;;17.95;11.25;;;7.90;85.30;;;;;;5076018;28;20226;-70
2022/03/28 04:51:21;;;;;;;20.10;13.75;;;8.00;86.10;;;;;;5075888;28;20235;-69
2022/03/28 04:53:48;;;;;;;18.15;11.98;;;8.00;85.30;;;;;;5075985;28;20215;-70
2022/03/28 04:56:18;;;;;;;19.55;12.30;;;7.90;85.30;;;;;;5076323;28;20210;-70
2022/03/28 04:58:45;;;;;;;19.90;11.80;;;7.80;85.20;;;;;;5076047;28;20226;-70
2022/03/28 05:01:12;;;;;;;21.48;11.93;;;7.80;85.30;;;;;;5076129;28;20289;-70
2022/03/28 05:03:38;;;;;;;21.20;12.05;;;7.80;85.40;;;;;;5075658;28;20278;-70
2022/03/28 05:06:08;;;;;;;16.48;11.90;;;7.70;86.30;;;;;;5075834;28;20719;-70
2022/03/28 05:08:35;;;;;;;17.63;10.57;;;7.70;86.10;;;;;;5075934;28;20254;-70
2022/03/28 05:11:02;;;;;;;20.80;13.70;;;7.80;86.30;;;;;;5075989;28;20207;-69
2022/03/28 05:13:29;;;;;;;19.55;13.30;;;7.70;86.70;;;;;;5075577;28;20225;-70
2022/03/28 05:15:57;;;;;;;20.58;12.32;;;7.80;88.00;;;;;;5075855;28;20198;-70
2022/03/28 05:18:24;;;;;;;17.52;12.52;;;7.70;90.50;;;;;;5075728;28;20645;-69
2022/03/28 05:20:50;;;;;;;18.13;12.40;;;7.80;89.70;;;;;;5075762;28;20206;-70
2022/03/28 05:23:18;;;;;;;17.73;12.38;;;7.80;90.00;;;;;;5075269;28;20203;-70
2022/03/28 05:25:45;;;;;;;16.60;11.32;;;7.70;88.70;;;;;;5075787;28;20230;-70
2022/03/28 05:28:12;;;;;;;19.90;12.98;;;7.70;88.80;;;;;;5075277;28;20238;-70
2022/03/28 05:30:39;;;;;;;20.38;12.35;;;7.80;90.10;;;;;;5075552;28;20213;-70
2022/03/28 05:33:07;;;;;;;19.33;13.65;;;7.60;90.10;;;;;;5075350;28;20264;-70
2022/03/28 05:35:35;;;;;;;25.00;13.10;;;7.70;90.00;;;;;;5075162;28;20687;-70
2022/03/28 05:38:02;;;;;;;18.98;13.60;;;7.80;90.10;;;;;;5075360;28;20218;-70
2022/03/28 05:40:30;;;;;;;20.17;13.57;;;7.60;90.10;;;;;;5075294;28;20199;-70
2022/03/28 05:42:57;;;;;;;22.73;13.63;;;7.50;90.90;;;;;;5075163;28;20203;-70
2022/03/28 05:45:25;;;;;;;20.30;13.52;;;7.40;91.10;;;;;;5075190;28;20664;-70
2022/03/28 05:47:51;;;;;;;21.27;13.43;;;7.50;91.30;;;;;;5074993;28;20631;-70
2022/03/28 05:50:18;;;;;;;18.92;12.93;;;7.70;91.20;;;;;;5074946;28;20234;-70
2022/03/28 05:52:48;;;;;;;20.15;13.13;;;7.70;91.00;;;;;;5075120;28;20225;-70
2022/03/28 05:55:15;;;;;;;21.13;12.65;;;7.70;90.90;;;;;;5074797;28;20202;-70
2022/03/28 05:57:43;;;;;;;17.42;12.35;;;7.70;90.90;;;;;;5074986;28;20222;-70
2022/03/28 06:00:13;;;;;;;23.90;13.80;;;7.80;90.80;;;;;;5074621;28;20297;-70
2022/03/28 06:02:40;;;;;;;24.17;13.70;;;7.80;90.80;;;;;;5074960;28;20198;-70
2022/03/28 06:05:07;;;;;;;18.40;13.70;;;7.70;91.10;;;;;;5074443;28;20668;-70
2022/03/28 06:07:35;;;;;;;25.73;13.65;;;7.80;90.70;;;;;;5074683;28;20222;-70
2022/03/28 06:10:02;;;;;;;19.50;12.98;;;7.90;90.40;;;;;;5074487;28;20202;-70
2022/03/28 06:12:28;;;;;;;24.33;13.32;;;7.80;90.20;;;;;;5074658;28;20264;-70
2022/03/28 06:14:57;;;;;;;20.65;14.60;;;7.90;90.00;;;;;;5074215;28;20198;-70
2022/03/28 06:17:25;;;;;;;19.48;12.77;;;8.10;89.60;;;;;;5074340;28;20202;-70
2022/03/28 06:19:52;;;;;;;20.45;14.50;;;8.20;90.10;;;;;;5074512;28;20222;-70
2022/03/28 06:22:19;;;;;;;24.60;14.70;;;8.10;89.80;;;;;;5074380;28;20715;-70
2022/03/28 06:24:46;;;;;;;24.42;13.68;;;8.10;89.50;;;;;;5074279;28;20198;-70
2022/03/28 06:27:13;;;;;;;19.48;12.88;;;8.00;89.20;;;;;;5074169;28;20248;-70
2022/03/28 06:29:40;;;;;;;20.20;13.85;;;8.20;88.80;;;;;;5074114;28;20239;-70
2022/03/28 06:32:09;;;;;;;16.20;12.80;;;8.30;87.90;;;;;;5074069;28;20213;-69
2022/03/28 06:34:36;;;;;;;21.38;14.25;;;8.30;88.30;;;;;;5073875;28;20206;-70
2022/03/28 06:37:03;;;;;;;20.20;13.40;;;8.30;88.40;;;;;;5074277;28;20199;-70
2022/03/28 06:39:29;;;;;;;18.85;13.00;;;8.40;88.20;;;;;;5074198;28;20219;-70
2022/03/28 06:41:56;;;;;;;19.27;13.43;;;8.50;86.70;;;;;;5074112;28;20234;-70
2022/03/28 06:44:23;;;;;;;18.52;12.27;;;8.50;87.40;;;;;;5074193;28;20285;-70
2022/03/28 06:46:50;;;;;;;16.40;12.88;;;8.40;88.30;;;;;;5074031;28;20222;-70
2022/03/28 06:49:18;;;;;;;17.98;12.60;;;8.40;87.70;;;;;;5073704;28;20254;-70
2022/03/28 06:51:45;;;;;;;18.08;12.38;;;8.60;87.60;;;;;;5073536;28;20210;-70
2022/03/28 06:54:14;;;;;;;18.83;13.10;;;8.60;87.80;;;;;;5073629;28;20206;-70
2022/03/28 06:56:41;;;;;;;20.67;13.20;;;8.70;87.50;;;;;;5073763;28;20198;-70
2022/03/28 06:59:08;;;;;;;16.55;13.63;;;8.80;86.40;;;;;;5073560;28;20226;-70
2022/03/28 07:01:36;;;;;;;21.13;13.75;;;8.90;84.40;;;;;;5073844;28;20289;-70
2022/03/28 07:04:03;;;;;;;22.40;13.98;;;9.00;84.00;;;;;;5073548;28;20573;-70
2022/03/28 07:06:32;;;;;;;18.30;14.20;;;9.10;84.40;;;;;;5073543;28;20229;-70
2022/03/28 07:08:59;;;;;;;19.58;12.98;;;9.00;84.50;;;;;;5073691;28;20554;-70
2022/03/28 07:11:26;;;;;;;22.45;14.00;;;8.90;84.40;;;;;;5073669;28;20207;-70
2022/03/28 07:13:55;;;;;;;18.40;13.85;;;8.80;84.10;;;;;;5073460;28;20203;-69
2022/03/28 07:16:22;;;;;;;23.23;13.75;;;8.60;85.10;;;;;;5073738;28;20294;-70
2022/03/28 07:18:49;;;;;;;21.00;14.18;;;8.50;84.80;;;;;;5073703;28;20314;-70
2022/03/28 07:21:16;;;;;;;22.02;13.48;;;8.50;86.60;;;;;;5073394;28;20205;-70
2022/03/28 07:23:44;;;;;;;21.02;13.80;;;8.60;87.30;;;;;;5073372;28;20203;-70
2022/03/28 07:26:13;;;;;;;20.88;14.20;;;8.60;86.10;;;;;;5074640;28;20548;-70
2022/03/28 07:28:40;;;;;;;22.13;13.23;;;8.70;86.00;;;;;;5073221;28;20577;-70
2022/03/28 07:31:08;;;;;;;19.35;13.05;;;8.80;86.40;;;;;;5073539;28;20625;-70
2022/03/28 07:33:36;;;;;;;20.83;13.93;;;8.90;86.20;;;;;;5073434;28;20203;-70
2022/03/28 07:36:04;;;;;;;19.35;15.05;;;9.10;86.20;;;;;;5073573;28;20211;-70
2022/03/28 07:38:30;;;;;;;22.58;14.90;;;9.30;85.40;;;;;;5073423;28;20218;-70
2022/03/28 07:40:59;;;;;;;17.75;14.30;;;9.40;84.20;;;;;;5073483;28;20542;-70
2022/03/28 07:43:26;;;;;;;21.20;14.52;;;9.50;83.90;;;;;;5073039;28;20209;-70
2022/03/28 07:45:54;;;;;;;19.67;14.38;;;9.50;83.30;;;;;;5073431;28;20245;-67
2022/03/28 07:48:22;;;;;;;23.95;14.90;;;9.60;83.00;;;;;;5073128;28;20230;-69
2022/03/28 07:50:50;;;;;;;20.88;14.50;;;9.80;82.60;;;;;;5073039;28;20698;-69
2022/03/28 07:53:17;;;;;;;21.83;14.75;;;10.10;80.50;;;;;;5073198;28;20292;-68
2022/03/28 07:55:45;;;;;;;25.88;15.85;;;10.10;80.00;;;;;;5073379;28;20198;-69
2022/03/28 07:58:14;;;;;;;30.42;15.55;;;10.20;79.00;;;;;;5073254;28;20355;-69
2022/03/28 08:00:41;;;;;;;20.90;15.18;;;10.20;78.60;;;;;;5073307;28;20241;-69
2022/03/28 08:03:08;;;;;;;24.80;15.70;;;10.20;79.60;;;;;;5073030;28;20207;-69
2022/03/28 08:05:35;;;;;;;21.15;15.10;;;10.40;79.00;;;;;;5076091;28;20230;-68
2022/03/28 08:08:01;;;;;;;24.83;14.80;;;10.30;78.70;;;;;;5076959;28;20234;-69
2022/03/28 08:10:28;;;;;;;24.88;16.00;;;10.50;78.90;;;;;;5076942;28;20203;-69
2022/03/28 08:12:55;;;;;;;22.90;15.77;;;10.50;79.80;;;;;;5077077;28;20197;-69
2022/03/28 08:15:24;;;;;;;21.88;15.00;;;10.60;79.20;;;;;;5076672;28;20302;-69
2022/03/28 08:17:52;;;;;;;20.85;14.23;;;10.70;80.20;;;;;;5076777;28;20252;-69
2022/03/28 08:20:18;;;;;;;21.83;14.82;;;10.80;79.50;;;;;;5076995;28;20298;-69
2022/03/28 08:22:49;;;;;;;22.38;15.38;;;10.90;78.30;;;;;;5076787;28;20213;-69
2022/03/28 08:25:17;;;;;;;21.60;14.73;;;11.00;78.00;;;;;;5076654;28;20203;-69
2022/03/28 08:27:43;;;;;;;24.65;15.43;;;11.10;79.10;;;;;;5076361;28;20219;-69
2022/03/28 08:30:12;;;;;;;21.95;17.08;;;11.10;79.30;;;;;;5076639;28;20198;-69
2022/03/28 08:32:42;;;;;;;22.90;16.48;;;11.10;77.40;;;;;;5076320;28;20203;-69
2022/03/28 08:35:09;;;;;;;23.10;16.10;;;11.30;76.30;;;;;;5076487;28;20297;-69
2022/03/28 08:37:37;;;;;;;24.88;16.67;;;11.40;77.30;;;;;;5076453;28;20195;-69
2022/03/28 08:40:06;;;;;;;22.83;16.38;;;11.40;77.80;;;;;;5076496;28;20199;-69
2022/03/28 08:42:34;;;;;;;20.33;14.95;;;11.60;75.40;;;;;;5076409;28;20209;-69
2022/03/28 08:45:01;;;;;;;22.80;16.58;;;11.80;76.00;;;;;;5075985;28;20207;-69
2022/03/28 08:47:28;;;;;;;20.67;15.20;;;12.00;75.40;;;;;;5076242;28;20226;-69
2022/03/28 08:49:56;;;;;;;24.00;15.82;;;12.10;76.10;;;;;;5076302;28;20238;-69
2022/03/28 08:52:24;;;;;;;20.38;16.73;;;12.40;75.00;;;;;;5076245;28;20202;-69
2022/03/28 08:54:51;;;;;;;20.92;15.45;;;12.50;74.80;;;;;;5076052;28;20203;-69
2022/03/28 08:57:18;;;;;;;21.25;15.40;;;12.80;74.10;;;;;;5076045;28;20198;-69
2022/03/28 08:59:45;;;;;;;19.95;14.38;;;13.40;73.40;;;;;;5076074;28;20233;-69
2022/03/28 09:02:32;;;;;;;19.52;14.85;;;13.90;69.80;;;;;;5075862;28;20673;-69
2022/03/28 09:05:01;;;;;;;24.13;15.88;;;14.30;68.20;;;;;;5075886;28;20260;-69
2022/03/28 09:07:28;;;;;;;19.38;15.23;;;14.50;67.40;;;;;;5075981;28;20225;-69
2022/03/28 09:09:59;;;;;;;20.73;14.65;;;14.80;63.80;;;;;;5075599;28;20235;-69
2022/03/28 09:12:26;;;;;;;21.98;13.95;;;14.70;62.70;;;;;;5075671;28;20204;-69
2022/03/28 09:14:58;;;;;;;21.05;15.45;;;14.70;59.40;;;;;;5075085;28;20209;-69
2022/03/28 09:17:26;;;;;;;19.30;14.90;;;14.80;60.90;;;;;;5075903;28;20184;-69
2022/03/28 09:19:55;;;;;;;21.23;15.52;;;14.60;59.20;;;;;;5075762;28;20220;-69
2022/03/28 09:22:24;;;;;;;21.38;16.15;;;14.70;60.60;;;;;;5075642;28;20224;-69
2022/03/28 09:24:53;;;;;;;22.02;15.65;;;14.70;59.10;;;;;;5075567;28;20569;-69
2022/03/28 09:27:22;;;;;;;22.05;15.80;;;14.90;58.80;;;;;;5075414;28;20225;-70
2022/03/28 09:30:01;;;;;;;26.55;16.10;;;15.10;57.80;;;;;;5076034;28;20313;-69
2022/03/28 09:32:29;;;;;;;23.80;17.52;;;15.40;58.20;;;;;;5075658;28;20215;-69
2022/03/28 09:35:03;;;;;;;26.92;17.15;;;15.70;57.50;;;;;;5075217;28;20301;-69
2022/03/28 09:37:32;;;;;;;24.90;16.63;;;15.80;57.50;;;;;;5075486;28;20212;-69
2022/03/28 09:39:58;;;;;;;24.13;16.85;;;15.90;57.50;;;;;;5075110;28;20206;-69
2022/03/28 09:42:25;;;;;;;23.52;16.35;;;15.90;57.70;;;;;;5075410;28;20209;-69
2022/03/28 09:44:53;;;;;;;23.05;16.80;;;16.00;57.70;;;;;;5075095;28;20203;-69
2022/03/28 09:47:21;;;;;;;24.30;16.70;;;16.10;57.30;;;;;;5075235;28;20253;-69
2022/03/28 09:49:50;;;;;;;23.52;17.10;;;16.30;57.10;;;;;;5075169;28;20248;-69
2022/03/28 09:52:19;;;;;;;23.17;16.58;;;16.90;56.90;;;;;;5075431;28;20203;-69
2022/03/28 09:54:51;;;;;;;22.52;17.23;;;18.20;55.60;;;;;;5074668;28;20238;-69
2022/03/28 09:57:20;;;;;;;24.10;18.50;;;19.50;53.30;;;;;;5074853;28;20193;-70
2022/03/28 09:59:47;;;;;;;25.60;17.60;;;20.90;50.70;;;;;;5074618;28;20548;-69
2022/03/28 10:02:19;;;;;;;24.27;18.33;;;22.20;48.10;;;;;;5074641;28;20479;-70
2022/03/28 10:04:49;;;;;;;22.03;17.60;;;23.00;45.30;;;;;;5074728;28;20533;-70
2022/03/28 10:07:16;;;;;;;22.93;18.90;;;23.60;43.80;;;;;;5074756;28;20838;-70
2022/03/28 10:09:43;;;;;;;25.17;18.80;;;23.90;43.10;;;;;;5074791;28;20466;-70
2022/03/28 10:12:11;;;;;;;23.57;18.73;;;24.10;42.40;;;;;;5074674;28;20509;-70
2022/03/28 10:14:38;;;;;;;21.00;18.10;;;24.30;42.20;;;;;;5074351;28;20444;-70
2022/03/28 10:17:07;;;;;;;20.40;18.10;;;24.10;41.70;;;;;;5074583;28;20465;-70
2022/03/28 10:19:37;;;;;;;24.97;18.73;;;24.30;42.20;;;;;;5074559;28;20471;-70
2022/03/28 10:22:06;;;;;;;24.27;20.07;;;24.10;41.30;;;;;;5074505;28;20455;-70
2022/03/28 10:24:34;;;;;;;21.10;18.90;;;24.50;41.30;;;;;;5074073;28;20462;-70
2022/03/28 10:27:03;;;;;;;22.47;19.40;;;25.40;40.70;;;;;;5073415;28;20807;-71
2022/03/28 10:29:37;;;;;;;22.07;18.10;;;26.50;39.10;;;;;;5074387;28;20487;-68
2022/03/28 10:32:08;;;;;;;20.63;18.43;;;27.50;37.00;;;;;;5074386;28;20874;-68
2022/03/28 10:34:48;;;;;;;23.33;18.90;;;28.10;35.50;;;;;;5074134;28;20434;-68
2022/03/28 10:37:33;;;;;;;22.73;18.53;;;28.50;34.80;;;;;;5074101;28;20929;-68
2022/03/28 10:40:21;;;;;;;22.43;19.93;;;28.10;34.30;;;;;;5074276;28;20428;-68
2022/03/28 10:42:52;;;;;;;19.70;17.70;;;28.40;34.00;;;;;;5074276;28;20441;-68
2022/03/28 10:45:21;;;;;;;20.53;18.43;;;28.50;33.80;;;;;;5073913;28;20438;-68
2022/03/28 10:47:52;;;;;;;20.03;18.03;;;28.00;34.10;;;;;;5073853;28;21024;-68
2022/03/28 10:50:22;;;;;;;20.13;17.90;;;27.80;34.10;;;;;;5074090;28;20795;-68
2022/03/28 10:53:11;;;;;;;26.20;18.00;;;27.60;34.00;;;;;;5073793;28;20811;-68
2022/03/28 10:55:43;;;;;;;23.20;17.70;;;27.20;33.40;;;;;;5073983;28;20532;-68
2022/03/28 10:58:16;;;;;;;20.47;16.70;;;27.00;34.60;;;;;;5073816;28;20461;-68
2022/03/28 11:01:20;;;;;;;20.13;18.03;;;27.10;34.20;;;;;;5073963;28;20835;-68
2022/03/28 11:03:54;;;;;;;19.53;17.43;;;27.20;33.80;;;;;;5073768;28;20444;-68
2022/03/28 11:06:42;;;;;;;21.53;18.60;;;27.80;33.30;;;;;;5073805;28;20444;-68
2022/03/28 11:09:09;;;;;;;20.23;17.47;;;28.50;32.90;;;;;;5073256;28;20493;-69
2022/03/28 11:11:36;;;;;;;19.57;17.40;;;28.90;30.90;;;;;;5073584;28;20448;-69
2022/03/28 11:14:04;;;;;;;21.40;17.70;;;29.30;30.00;;;;;;5073272;28;20440;-68
2022/03/28 11:16:43;;;;;;;19.53;17.57;;;29.30;29.20;;;;;;5073657;28;20444;-68
2022/03/28 11:19:29;;;;;;;20.60;16.20;;;28.70;30.00;;;;;;5073659;28;20461;-69
2022/03/28 11:22:01;;;;;;;18.10;16.20;;;29.20;29.50;;;;;;5073642;28;20531;-68
2022/03/28 11:24:58;;;;;;;19.37;17.30;;;29.30;29.10;;;;;;5073511;28;20441;-69
2022/03/28 11:27:30;;;;;;;22.03;18.27;;;29.90;28.70;;;;;;5011636;28;20470;-69
2022/03/28 11:30:01;;;;;;;20.87;17.30;;;30.10;28.60;;;;;;5061344;28;20445;-69
2022/03/28 11:32:32;;;;;;;20.50;18.50;;;30.00;28.70;;;;;;5073400;28;20441;-69
2022/03/28 11:35:00;;;;;;;19.47;17.53;;;29.70;28.10;;;;;;5073384;28;20448;-69
2022/03/28 11:37:28;;;;;;;22.20;17.97;;;29.00;29.10;;;;;;5073509;28;20536;-68
2022/03/28 11:39:57;;;;;;;20.10;18.00;;;28.00;29.70;;;;;;5077091;28;20555;-68
2022/03/28 11:42:25;;;;;;;20.23;17.37;;;27.50;30.30;;;;;;5077596;28;20529;-68
2022/03/28 11:44:52;;;;;;;22.93;17.70;;;27.90;31.40;;;;;;5077377;28;20437;-68
2022/03/28 11:47:19;;;;;;;23.40;17.67;;;27.30;30.40;;;;;;5077522;28;20832;-68
2022/03/28 11:49:59;;;;;;;22.47;18.03;;;27.00;31.50;;;;;;5077442;28;20571;-68
2022/03/28 11:52:28;;;;;;;22.00;16.90;;;26.50;31.10;;;;;;5077084;28;20499;-68
2022/03/28 11:54:56;;;;;;;20.30;17.00;;;25.00;32.70;;;;;;5077221;28;20443;-68
2022/03/28 12:00:16;;;;;;;18.37;15.50;;;23.80;34.50;;;;;;5077264;28;20873;-70
2022/03/28 12:02:50;;;;;;;22.43;18.03;;;24.00;35.50;;;;;;5077146;28;20920;-70
2022/03/28 12:05:31;;;;;;;22.33;18.10;;;23.30;34.70;;;;;;5076782;28;20954;-69
2022/03/28 12:08:01;;;;;;;24.67;17.93;;;23.00;34.60;;;;;;5076990;28;21042;-70
2022/03/28 12:10:30;;;;;;;20.40;16.37;;;22.60;35.40;;;;;;5076851;28;20452;-70
2022/03/28 12:12:58;;;;;;;23.70;17.87;;;22.40;35.90;;;;;;5076937;28;20524;-69
2022/03/28 12:15:27;;;;;;;22.40;17.63;;;22.30;36.20;;;;;;5076947;28;20452;-70
2022/03/28 12:17:54;;;;;;;21.67;16.23;;;22.10;36.60;;;;;;5076843;28;20472;-70
2022/03/28 12:20:23;;;;;;;21.83;16.30;;;21.80;37.60;;;;;;5077224;28;20444;-70
2022/03/28 12:22:51;;;;;;;26.57;17.07;;;21.50;38.30;;;;;;5076816;28;20918;-70
2022/03/28 12:25:29;;;;;;;24.50;17.20;;;21.40;38.80;;;;;;5076651;28;20810;-69
2022/03/28 12:27:56;;;;;;;22.63;16.60;;;21.60;39.50;;;;;;5076493;28;20479;-70
2022/03/28 12:30:31;;;;;;;24.93;16.70;;;21.50;39.10;;;;;;5076695;28;20447;-70
2022/03/28 12:32:58;;;;;;;25.00;18.80;;;21.50;39.10;;;;;;5076452;28;20451;-69
2022/03/28 12:35:26;;;;;;;23.20;18.80;;;21.30;39.00;;;;;;5076472;28;21009;-70
2022/03/28 12:38:00;;;;;;;20.97;17.23;;;21.10;39.40;;;;;;5076345;28;20534;-70
2022/03/28 12:40:30;;;;;;;22.67;18.20;;;21.20;40.40;;;;;;5076505;28;20447;-70
2022/03/28 12:42:58;;;;;;;26.30;17.57;;;21.20;41.10;;;;;;5076444;28;20450;-70
2022/03/28 12:45:26;;;;;;;22.80;17.33;;;20.90;40.80;;;;;;5076437;28;20454;-70